sensor_id;sensor_type;location;lat;lon;timestamp;pressure;altitude;pressure_sealevel;temperature;humidity
56174;BME280;42058;52.308;20.924;2022-12-08T00:02:24;99852.78;;;0.47;100.00
56174;BME280;42058;52.308;20.924;2022-12-08T00:04:50;99856.25;;;0.48;100.00
56174;BME280;42058;52.308;20.924;2022-12-08T00:07:37;99851.48;;;0.47;100.00
56174;BME280;42058;52.308;20.924;2022-12-08T00:10:22;99865.72;;;0.47;100.00
56174;BME280;42058;52.308;20.924;2022-12-08T00:12:48;99864.42;;;0.47;100.00
56174;BME280;42058;52.308;20.924;2022-12-08T00:15:14;99865.72;;;0.47;100.00
56174;BME280;42058;52.308;20.924;2022-12-08T00:17:40;99872.19;;;0.47;100.00
56174;BME280;42058;52.308;20.924;2022-12-08T00:20:07;99873.06;;;0.46;100.00
56174;BME280;42058;52.308;20.924;2022-12-08T00:22:33;99870.48;;;0.46;100.00
56174;BME280;42058;52.308;20.924;2022-12-08T00:24:59;99873.06;;;0.46;100.00
56174;BME280;42058;52.308;20.924;2022-12-08T00:27:25;99870.48;;;0.46;100.00
56174;BME280;42058;52.308;20.924;2022-12-08T00:29:52;99878.66;;;0.47;100.00
56174;BME280;42058;52.308;20.924;2022-12-08T00:32:18;99884.29;;;0.48;100.00
56174;BME280;42058;52.308;20.924;2022-12-08T00:34:44;99888.63;;;0.49;100.00
56174;BME280;42058;52.308;20.924;2022-12-08T00:37:10;99892.09;;;0.51;100.00
56174;BME280;42058;52.308;20.924;2022-12-08T00:39:36;99890.35;;;0.52;100.00
56174;BME280;42058;52.308;20.924;2022-12-08T00:42:02;99898.12;;;0.52;100.00
56174;BME280;42058;52.308;20.924;2022-12-08T00:44:30;99902.42;;;0.53;100.00
56174;BME280;42058;52.308;20.924;2022-12-08T00:46:56;99890.35;;;0.52;100.00
56174;BME280;42058;52.308;20.924;2022-12-08T00:49:23;99905.02;;;0.53;100.00
56174;BME280;42058;52.308;20.924;2022-12-08T00:51:49;99908.48;;;0.53;100.00
56174;BME280;42058;52.308;20.924;2022-12-08T00:54:15;99914.52;;;0.52;100.00
56174;BME280;42058;52.308;20.924;2022-12-08T00:56:42;99912.36;;;0.52;100.00
56174;BME280;42058;52.308;20.924;2022-12-08T00:59:09;99909.33;;;0.52;100.00
56174;BME280;42058;52.308;20.924;2022-12-08T01:01:35;99916.67;;;0.54;100.00
56174;BME280;42058;52.308;20.924;2022-12-08T01:04:03;99923.14;;;0.54;100.00
56174;BME280;42058;52.308;20.924;2022-12-08T01:06:36;99931.78;;;0.56;100.00
56174;BME280;42058;52.308;20.924;2022-12-08T01:09:04;99931.78;;;0.56;100.00
56174;BME280;42058;52.308;20.924;2022-12-08T01:11:31;99930.07;;;0.55;100.00
56174;BME280;42058;52.308;20.924;2022-12-08T01:13:58;99935.27;;;0.57;100.00
56174;BME280;42058;52.308;20.924;2022-12-08T01:16:29;99933.97;;;0.57;100.00
56174;BME280;42058;52.308;20.924;2022-12-08T01:18:58;99933.95;;;0.55;100.00
56174;BME280;42058;52.308;20.924;2022-12-08T01:21:25;99931.78;;;0.56;100.00
56174;BME280;42058;52.308;20.924;2022-12-08T01:23:53;99938.70;;;0.57;100.00
56174;BME280;42058;52.308;20.924;2022-12-08T01:26:19;99930.49;;;0.56;100.00
56174;BME280;42058;52.308;20.924;2022-12-08T01:28:46;99936.96;;;0.56;100.00
56174;BME280;42058;52.308;20.924;2022-12-08T01:31:18;99931.78;;;0.56;100.00
56174;BME280;42058;52.308;20.924;2022-12-08T01:33:46;99938.70;;;0.56;100.00
56174;BME280;42058;52.308;20.924;2022-12-08T01:36:22;99933.95;;;0.55;100.00
56174;BME280;42058;52.308;20.924;2022-12-08T01:38:50;99936.53;;;0.54;100.00
56174;BME280;42058;52.308;20.924;2022-12-08T01:41:20;99933.08;;;0.53;100.00
56174;BME280;42058;52.308;20.924;2022-12-08T01:43:58;99933.51;;;0.51;100.00
56174;BME280;42058;52.308;20.924;2022-12-08T01:46:27;99934.36;;;0.52;100.00
56174;BME280;42058;52.308;20.924;2022-12-08T01:49:03;99933.48;;;0.53;100.00
56174;BME280;42058;52.308;20.924;2022-12-08T01:51:45;99940.40;;;0.52;100.00
56174;BME280;42058;52.308;20.924;2022-12-08T01:54:24;99941.27;;;0.51;100.00
56174;BME280;42058;52.308;20.924;2022-12-08T01:56:57;99942.97;;;0.51;100.00
56174;BME280;42058;52.308;20.924;2022-12-08T01:59:29;99941.27;;;0.51;100.00
56174;BME280;42058;52.308;20.924;2022-12-08T02:01:58;99942.09;;;0.49;100.00
56174;BME280;42058;52.308;20.924;2022-12-08T02:04:24;99945.58;;;0.49;100.00
56174;BME280;42058;52.308;20.924;2022-12-08T02:06:50;99945.97;;;0.47;100.00
56174;BME280;42058;52.308;20.924;2022-12-08T02:09:18;99944.67;;;0.47;100.00
56174;BME280;42058;52.308;20.924;2022-12-08T02:11:45;99947.70;;;0.47;100.00
56174;BME280;42058;52.308;20.924;2022-12-08T02:14:12;99945.55;;;0.46;100.00
56174;BME280;42058;52.308;20.924;2022-12-08T02:17:25;99954.17;;;0.47;100.00
56174;BME280;42058;52.308;20.924;2022-12-08T02:19:48;99942.52;;;0.47;100.00
56174;BME280;42058;52.308;20.924;2022-12-08T02:22:49;99942.95;;;0.46;100.00
56174;BME280;42058;52.308;20.924;2022-12-08T02:25:32;99942.50;;;0.45;100.00
56174;BME280;42058;52.308;20.924;2022-12-08T02:28:15;99950.73;;;0.46;100.00
56174;BME280;42058;52.308;20.924;2022-12-08T02:31:06;99941.63;;;0.43;100.00
56174;BME280;42058;52.308;20.924;2022-12-08T02:34:04;99947.69;;;0.42;100.00
56174;BME280;42058;52.308;20.924;2022-12-08T02:39:44;99948.52;;;0.41;100.00
56174;BME280;42058;52.308;20.924;2022-12-08T02:42:43;99947.23;;;0.41;100.00
56174;BME280;42058;52.308;20.924;2022-12-08T02:45:21;99948.49;;;0.38;100.00
56174;BME280;42058;52.308;20.924;2022-12-08T02:47:51;99951.08;;;0.38;100.00
56174;BME280;42058;52.308;20.924;2022-12-08T02:50:17;99950.66;;;0.37;100.00
56174;BME280;42058;52.308;20.924;2022-12-08T02:52:45;99951.50;;;0.36;100.00
56174;BME280;42058;52.308;20.924;2022-12-08T03:01:01;99957.55;;;0.35;100.00
56174;BME280;42058;52.308;20.924;2022-12-08T03:03:36;99969.20;;;0.35;100.00
56174;BME280;42058;52.308;20.924;2022-12-08T03:06:23;99964.02;;;0.35;100.00
56174;BME280;42058;52.308;20.924;2022-12-08T03:08:56;99967.45;;;0.34;100.00
56174;BME280;42058;52.308;20.924;2022-12-08T03:11:45;99971.78;;;0.35;100.00
56174;BME280;42058;52.308;20.924;2022-12-08T03:14:21;99968.75;;;0.34;100.00
56174;BME280;42058;52.308;20.924;2022-12-08T03:16:50;99976.52;;;0.34;100.00
56174;BME280;42058;52.308;20.924;2022-12-08T03:19:25;99979.97;;;0.33;100.00
56174;BME280;42058;52.308;20.924;2022-12-08T03:21:56;99982.56;;;0.33;100.00
56174;BME280;42058;52.308;20.924;2022-12-08T03:24:25;99984.70;;;0.32;100.00
56174;BME280;42058;52.308;20.924;2022-12-08T03:26:55;99989.87;;;0.32;100.00
56174;BME280;42058;52.308;20.924;2022-12-08T03:29:26;99981.23;;;0.30;100.00
56174;BME280;42058;52.308;20.924;2022-12-08T03:31:56;99985.11;;;0.30;100.00
56174;BME280;42058;52.308;20.924;2022-12-08T03:34:27;99981.66;;;0.31;100.00
56174;BME280;42058;52.308;20.924;2022-12-08T03:36:55;99988.99;;;0.30;100.00
56174;BME280;42058;52.308;20.924;2022-12-08T03:39:21;99994.59;;;0.31;100.00
56174;BME280;42058;52.308;20.924;2022-12-08T03:41:47;99999.36;;;0.31;100.00
56174;BME280;42058;52.308;20.924;2022-12-08T03:44:13;99998.92;;;0.32;100.00
56174;BME280;42058;52.308;20.924;2022-12-08T03:46:39;99998.09;;;0.33;100.00
56174;BME280;42058;52.308;20.924;2022-12-08T03:49:05;99998.09;;;0.33;100.00
56174;BME280;42058;52.308;20.924;2022-12-08T03:51:31;99998.95;;;0.33;100.00
56174;BME280;42058;52.308;20.924;2022-12-08T03:53:57;100004.96;;;0.32;100.00
56174;BME280;42058;52.308;20.924;2022-12-08T03:56:26;99998.92;;;0.32;100.00
56174;BME280;42058;52.308;20.924;2022-12-08T03:58:57;100005.85;;;0.33;100.00
56174;BME280;42058;52.308;20.924;2022-12-08T04:01:23;100007.98;;;0.32;100.00
56174;BME280;42058;52.308;20.924;2022-12-08T04:03:50;100010.58;;;0.32;100.00
56174;BME280;42058;52.308;20.924;2022-12-08T04:06:17;100007.13;;;0.31;100.00
56174;BME280;42058;52.308;20.924;2022-12-08T04:08:43;100010.12;;;0.31;100.00
56174;BME280;42058;52.308;20.924;2022-12-08T04:11:09;100014.02;;;0.32;100.00
56174;BME280;42058;52.308;20.924;2022-12-08T04:13:37;100023.97;;;0.33;100.00
56174;BME280;42058;52.308;20.924;2022-12-08T04:16:04;100025.27;;;0.33;100.00
56174;BME280;42058;52.308;20.924;2022-12-08T04:18:32;100025.69;;;0.34;100.00
56174;BME280;42058;52.308;20.924;2022-12-08T04:21:00;100026.10;;;0.32;100.00
56174;BME280;42058;52.308;20.924;2022-12-08T04:23:26;100025.66;;;0.32;100.00
56174;BME280;42058;52.308;20.924;2022-12-08T04:25:53;100035.16;;;0.32;100.00
56174;BME280;42058;52.308;20.924;2022-12-08T04:28:19;100032.16;;;0.34;100.00
56174;BME280;42058;52.308;20.924;2022-12-08T04:30:47;100032.61;;;0.35;100.00
56174;BME280;42058;52.308;20.924;2022-12-08T04:33:14;100029.56;;;0.34;100.00
56174;BME280;42058;52.308;20.924;2022-12-08T04:35:40;100028.27;;;0.34;100.00
56174;BME280;42058;52.308;20.924;2022-12-08T04:38:06;100039.08;;;0.35;100.00
56174;BME280;42058;52.308;20.924;2022-12-08T04:40:32;100042.07;;;0.34;100.00
56174;BME280;42058;52.308;20.924;2022-12-08T04:42:58;100041.22;;;0.34;100.00
56174;BME280;42058;52.308;20.924;2022-12-08T04:45:24;100046.35;;;0.31;100.00
56174;BME280;42058;52.308;20.924;2022-12-08T04:47:50;100043.34;;;0.30;100.00
56174;BME280;42058;52.308;20.924;2022-12-08T04:50:16;100036.87;;;0.30;100.00
56174;BME280;42058;52.308;20.924;2022-12-08T04:52:42;100043.76;;;0.28;100.00
56174;BME280;42058;52.308;20.924;2022-12-08T04:55:09;100047.63;;;0.26;100.00
56174;BME280;42058;52.308;20.924;2022-12-08T04:57:35;100044.59;;;0.27;100.00
56174;BME280;42058;52.308;20.924;2022-12-08T05:00:01;100043.72;;;0.25;100.00
56174;BME280;42058;52.308;20.924;2022-12-08T05:02:27;100046.31;;;0.25;100.00
56174;BME280;42058;52.308;20.924;2022-12-08T05:04:53;100051.03;;;0.24;100.00
56174;BME280;42058;52.308;20.924;2022-12-08T05:07:19;100053.63;;;0.22;100.00
56174;BME280;42058;52.308;20.924;2022-12-08T05:09:45;100055.33;;;0.22;100.00
56174;BME280;42058;52.308;20.924;2022-12-08T05:12:12;100062.69;;;0.22;100.00
56174;BME280;42058;52.308;20.924;2022-12-08T05:14:38;100061.80;;;0.22;100.00
56174;BME280;42058;52.308;20.924;2022-12-08T05:17:04;100062.66;;;0.21;100.00
56174;BME280;42058;52.308;20.924;2022-12-08T05:19:30;100062.64;;;0.19;100.00
56174;BME280;42058;52.308;20.924;2022-12-08T05:21:56;100061.78;;;0.18;100.00
56174;BME280;42058;52.308;20.924;2022-12-08T05:24:22;100064.80;;;0.19;100.00
56174;BME280;42058;52.308;20.924;2022-12-08T05:26:48;100071.29;;;0.21;100.00
56174;BME280;42058;52.308;20.924;2022-12-08T05:29:14;100062.25;;;0.23;100.00
56174;BME280;42058;52.308;20.924;2022-12-08T05:31:40;100064.45;;;0.26;100.00
56174;BME280;42058;52.308;20.924;2022-12-08T05:34:07;100056.72;;;0.29;100.00
56174;BME280;42058;52.308;20.924;2022-12-08T05:36:33;100063.65;;;0.33;100.00
56174;BME280;42058;52.308;20.924;2022-12-08T05:38:59;100056.78;;;0.37;100.00
56174;BME280;42058;52.308;20.924;2022-12-08T05:41:25;100067.16;;;0.38;100.00
56174;BME280;42058;52.308;20.924;2022-12-08T05:43:51;100061.54;;;0.39;100.00
56174;BME280;42058;52.308;20.924;2022-12-08T05:46:18;100058.52;;;0.40;100.00
56174;BME280;42058;52.308;20.924;2022-12-08T05:48:44;100058.53;;;0.41;100.00
56174;BME280;42058;52.308;20.924;2022-12-08T05:51:19;100060.66;;;0.40;100.00
56174;BME280;42058;52.308;20.924;2022-12-08T05:53:47;100068.85;;;0.38;100.00
56174;BME280;42058;52.308;20.924;2022-12-08T05:56:15;100067.99;;;0.37;100.00
56174;BME280;42058;52.308;20.924;2022-12-08T05:58:41;100067.97;;;0.36;100.00
56174;BME280;42058;52.308;20.924;2022-12-08T06:01:22;100067.95;;;0.34;100.00
56174;BME280;42058;52.308;20.924;2022-12-08T06:03:52;100069.27;;;0.33;100.00
56174;BME280;42058;52.308;20.924;2022-12-08T06:06:19;100078.72;;;0.32;100.00
56174;BME280;42058;52.308;20.924;2022-12-08T06:08:45;100084.30;;;0.29;100.00
56174;BME280;42058;52.308;20.924;2022-12-08T06:11:19;100095.52;;;0.28;100.00
56174;BME280;42058;52.308;20.924;2022-12-08T06:13:50;100108.45;;;0.28;100.00
56174;BME280;42058;52.308;20.924;2022-12-08T06:16:16;100103.23;;;0.25;100.00
56174;BME280;42058;52.308;20.924;2022-12-08T06:18:43;100105.37;;;0.24;100.00
56174;BME280;42058;52.308;20.924;2022-12-08T06:21:11;100115.73;;;0.22;100.00
56174;BME280;42058;52.308;20.924;2022-12-08T06:23:39;100118.72;;;0.22;100.00
56174;BME280;42058;52.308;20.924;2022-12-08T06:26:11;100117.84;;;0.19;100.00
56174;BME280;42058;52.308;20.924;2022-12-08T06:28:40;100123.89;;;0.18;100.00
56174;BME280;42058;52.308;20.924;2022-12-08T06:31:09;100126.48;;;0.18;100.00
56174;BME280;42058;52.308;20.924;2022-12-08T06:33:37;100126.02;;;0.17;100.00
56174;BME280;42058;52.308;20.924;2022-12-08T06:36:04;100123.01;;;0.16;100.00
56174;BME280;42058;52.308;20.924;2022-12-08T06:38:31;100122.09;;;0.14;100.00
56174;BME280;42058;52.308;20.924;2022-12-08T06:40:58;100122.12;;;0.16;100.00
56174;BME280;42058;52.308;20.924;2022-12-08T06:43:25;100123.44;;;0.17;100.00
56174;BME280;42058;52.308;20.924;2022-12-08T06:45:52;100122.16;;;0.19;100.00
56174;BME280;42058;52.308;20.924;2022-12-08T06:48:18;100126.48;;;0.18;100.00
56174;BME280;42058;52.308;20.924;2022-12-08T06:50:44;100130.36;;;0.18;100.00
56174;BME280;42058;52.308;20.924;2022-12-08T06:53:12;100131.66;;;0.18;100.00
56174;BME280;42058;52.308;20.924;2022-12-08T06:55:49;100145.47;;;0.21;100.00
56174;BME280;42058;52.308;20.924;2022-12-08T06:58:18;100132.94;;;0.20;100.00
56174;BME280;42058;52.308;20.924;2022-12-08T07:00:45;100141.59;;;0.21;100.00
56174;BME280;42058;52.308;20.924;2022-12-08T07:03:12;100143.30;;;0.22;100.00
56174;BME280;42058;52.308;20.924;2022-12-08T07:05:38;100141.17;;;0.23;100.00
56174;BME280;42058;52.308;20.924;2022-12-08T07:08:06;100133.84;;;0.24;100.00
56174;BME280;42058;52.308;20.924;2022-12-08T07:10:33;100139.47;;;0.25;100.00
56174;BME280;42058;52.308;20.924;2022-12-08T07:13:00;100139.47;;;0.25;100.00
56174;BME280;42058;52.308;20.924;2022-12-08T07:15:26;100143.80;;;0.26;100.00
56174;BME280;42058;52.308;20.924;2022-12-08T07:17:53;100146.39;;;0.26;100.00
56174;BME280;42058;52.308;20.924;2022-12-08T07:20:19;100145.96;;;0.26;100.00
56174;BME280;42058;52.308;20.924;2022-12-08T07:22:53;100153.75;;;0.28;100.00
56174;BME280;42058;52.308;20.924;2022-12-08T07:25:17;100156.76;;;0.29;100.00
56174;BME280;42058;52.308;20.924;2022-12-08T07:27:44;100154.63;;;0.30;100.00
56174;BME280;42058;52.308;20.924;2022-12-08T07:30:11;100156.78;;;0.30;100.00
56174;BME280;42058;52.308;20.924;2022-12-08T07:32:38;100162.81;;;0.31;100.00
56174;BME280;42058;52.308;20.924;2022-12-08T07:35:05;100173.17;;;0.31;100.00
56174;BME280;42058;52.308;20.924;2022-12-08T07:37:33;100165.86;;;0.32;100.00
56174;BME280;42058;52.308;20.924;2022-12-08T07:40:00;100171.49;;;0.33;100.00
56174;BME280;42058;52.308;20.924;2022-12-08T07:42:26;100167.17;;;0.33;100.00
56174;BME280;42058;52.308;20.924;2022-12-08T07:44:52;100172.36;;;0.36;100.00
56174;BME280;42058;52.308;20.924;2022-12-08T07:47:18;100165.08;;;0.39;100.00
56174;BME280;42058;52.308;20.924;2022-12-08T07:49:44;100168.09;;;0.40;100.00
56174;BME280;42058;52.308;20.924;2022-12-08T07:52:11;100175.02;;;0.41;100.00
56174;BME280;42058;52.308;20.924;2022-12-08T07:54:37;100178.06;;;0.42;100.00
56174;BME280;42058;52.308;20.924;2022-12-08T07:57:03;100177.66;;;0.46;100.00
56174;BME280;42058;52.308;20.924;2022-12-08T07:59:31;100163.85;;;0.47;100.00
56174;BME280;42058;52.308;20.924;2022-12-08T08:01:57;100175.98;;;0.49;100.00
56174;BME280;42058;52.308;20.924;2022-12-08T08:04:23;100174.69;;;0.49;100.00
56174;BME280;42058;52.308;20.924;2022-12-08T08:06:49;100174.69;;;0.49;100.00
56174;BME280;42058;52.308;20.924;2022-12-08T08:09:15;100171.69;;;0.51;100.00
56174;BME280;42058;52.308;20.924;2022-12-08T08:11:41;100177.28;;;0.52;100.00
56174;BME280;42058;52.308;20.924;2022-12-08T08:14:07;100170.81;;;0.52;100.00
56174;BME280;42058;52.308;20.924;2022-12-08T08:16:34;100172.97;;;0.53;100.00
56174;BME280;42058;52.308;20.924;2022-12-08T08:19:00;100169.97;;;0.53;100.00
56174;BME280;42058;52.308;20.924;2022-12-08T08:21:26;100176.87;;;0.54;100.00
56174;BME280;42058;52.308;20.924;2022-12-08T08:23:52;100176.03;;;0.55;100.00
56174;BME280;42058;52.308;20.924;2022-12-08T08:26:18;100183.81;;;0.57;100.00
56174;BME280;42058;52.308;20.924;2022-12-08T08:28:44;100181.63;;;0.56;100.00
56174;BME280;42058;52.308;20.924;2022-12-08T08:31:11;100184.22;;;0.56;100.00
56174;BME280;42058;52.308;20.924;2022-12-08T08:33:37;100192.45;;;0.57;100.00
56174;BME280;42058;52.308;20.924;2022-12-08T08:36:08;100190.31;;;0.59;100.00
56174;BME280;42058;52.308;20.924;2022-12-08T08:38:35;100183.42;;;0.61;100.00
56174;BME280;42058;52.308;20.924;2022-12-08T08:41:08;100186.84;;;0.60;100.00
56174;BME280;42058;52.308;20.924;2022-12-08T08:43:35;100193.33;;;0.60;100.00
56174;BME280;42058;52.308;20.924;2022-12-08T08:46:03;100193.34;;;0.61;100.00
56174;BME280;42058;52.308;20.924;2022-12-08T08:48:30;100179.97;;;0.62;100.00
56174;BME280;42058;52.308;20.924;2022-12-08T08:50:57;100183.01;;;0.63;100.00
56174;BME280;42058;52.308;20.924;2022-12-08T08:53:24;100183.43;;;0.64;100.00
56174;BME280;42058;52.308;20.924;2022-12-08T08:55:50;100189.06;;;0.65;100.00
56174;BME280;42058;52.308;20.924;2022-12-08T08:58:16;100193.41;;;0.66;100.00
56174;BME280;42058;52.308;20.924;2022-12-08T09:00:43;100192.53;;;0.67;100.00
56174;BME280;42058;52.308;20.924;2022-12-08T09:03:09;100188.69;;;0.70;100.00
56174;BME280;42058;52.308;20.924;2022-12-08T09:05:38;100193.45;;;0.72;100.00
56174;BME280;42058;52.308;20.924;2022-12-08T09:08:06;100196.47;;;0.73;100.00
56174;BME280;42058;52.308;20.924;2022-12-08T09:10:32;100202.98;;;0.76;100.00
56174;BME280;42058;52.308;20.924;2022-12-08T09:12:58;100194.38;;;0.77;100.00
56174;BME280;42058;52.308;20.924;2022-12-08T09:15:24;100196.11;;;0.80;100.00
56174;BME280;42058;52.308;20.924;2022-12-08T09:17:51;100193.08;;;0.80;100.00
56174;BME280;42058;52.308;20.924;2022-12-08T09:20:17;100186.63;;;0.82;100.00
56174;BME280;42058;52.308;20.924;2022-12-08T09:22:43;100187.52;;;0.82;100.00
56174;BME280;42058;52.308;20.924;2022-12-08T09:25:09;100187.98;;;0.86;100.00
56174;BME280;42058;52.308;20.924;2022-12-08T09:27:35;100187.13;;;0.89;100.00
56174;BME280;42058;52.308;20.924;2022-12-08T09:30:01;100187.59;;;0.91;100.00
56174;BME280;42058;52.308;20.924;2022-12-08T09:32:27;100184.59;;;0.93;100.00
56174;BME280;42058;52.308;20.924;2022-12-08T09:34:53;100176.82;;;0.93;100.00
56174;BME280;42058;52.308;20.924;2022-12-08T09:37:20;100182.87;;;0.95;100.00
56174;BME280;42058;52.308;20.924;2022-12-08T09:39:46;100185.91;;;0.98;100.00
56174;BME280;42058;52.308;20.924;2022-12-08T09:42:13;100185.92;;;1.00;100.00
56174;BME280;42058;52.308;20.924;2022-12-08T09:44:46;100176.02;;;1.04;100.00
56174;BME280;42058;52.308;20.924;2022-12-08T09:47:25;100171.72;;;1.06;100.00
56174;BME280;42058;52.308;20.924;2022-12-08T09:50:02;100173.91;;;1.09;100.00
56174;BME280;42058;52.308;20.924;2022-12-08T09:52:40;100176.53;;;1.12;100.00
56174;BME280;42058;52.308;20.924;2022-12-08T09:55:18;100174.83;;;1.16;100.00
56174;BME280;42058;52.308;20.924;2022-12-08T09:57:50;100177.45;;;1.19;100.00
56174;BME280;42058;52.308;20.924;2022-12-08T10:00:17;100165.38;;;1.21;100.00
56174;BME280;42058;52.308;20.924;2022-12-08T10:02:44;100169.30;;;1.24;100.00
56174;BME280;42058;52.308;20.924;2022-12-08T10:05:13;100172.34;;;1.28;100.00
56174;BME280;42058;52.308;20.924;2022-12-08T10:07:51;100170.63;;;1.32;100.00
56174;BME280;42058;52.308;20.924;2022-12-08T10:10:38;100165.91;;;1.36;100.00
56174;BME280;42058;52.308;20.924;2022-12-08T10:13:29;100169.84;;;1.41;100.00
56174;BME280;42058;52.308;20.924;2022-12-08T10:16:23;100165.10;;;1.45;100.00
56174;BME280;42058;52.308;20.924;2022-12-08T10:18:55;100155.17;;;1.49;100.00
56174;BME280;42058;52.308;20.924;2022-12-08T10:21:26;100151.31;;;1.55;100.00
56174;BME280;42058;52.308;20.924;2022-12-08T10:23:57;100153.50;;;1.59;100.00
56174;BME280;42058;52.308;20.924;2022-12-08T10:26:25;100148.79;;;1.63;100.00
56174;BME280;42058;52.308;20.924;2022-12-08T10:28:51;100143.61;;;1.67;100.00
56174;BME280;42058;52.308;20.924;2022-12-08T10:31:20;100144.95;;;1.73;100.00
56174;BME280;42058;52.308;20.924;2022-12-08T10:33:56;100133.73;;;1.78;100.00
56174;BME280;42058;52.308;20.924;2022-12-08T10:39:40;100133.77;;;1.87;100.00
56174;BME280;42058;52.308;20.924;2022-12-08T10:42:20;100132.06;;;1.92;100.00
56174;BME280;42058;52.308;20.924;2022-12-08T10:44:59;100132.94;;;2.00;100.00
56174;BME280;42058;52.308;20.924;2022-12-08T10:47:37;100134.28;;;2.06;100.00
56174;BME280;42058;52.308;20.924;2022-12-08T10:50:22;100131.69;;;2.13;100.00
56174;BME280;42058;52.308;20.924;2022-12-08T10:53:12;100132.58;;;2.18;100.00
56174;BME280;42058;52.308;20.924;2022-12-08T11:01:27;100116.16;;;2.31;100.00
56174;BME280;42058;52.308;20.924;2022-12-08T11:04:02;100118.32;;;2.33;100.00
56174;BME280;42058;52.308;20.924;2022-12-08T11:06:39;100115.75;;;2.38;100.00
56174;BME280;42058;52.308;20.924;2022-12-08T11:11:50;100112.73;;;2.41;100.00
56174;BME280;42058;52.308;20.924;2022-12-08T11:14:24;100112.30;;;2.46;100.00
56174;BME280;42058;52.308;20.924;2022-12-08T11:16:55;100105.37;;;2.48;100.00
56174;BME280;42058;52.308;20.924;2022-12-08T11:19:37;100104.95;;;2.52;100.00
56174;BME280;42058;52.308;20.924;2022-12-08T11:22:38;100106.67;;;2.55;100.00
56174;BME280;42058;52.308;20.924;2022-12-08T11:25:17;100107.98;;;2.56;100.00
56174;BME280;42058;52.308;20.924;2022-12-08T11:27:59;100093.27;;;2.60;100.00
56174;BME280;42058;52.308;20.924;2022-12-08T11:30:33;100093.69;;;2.62;100.00
56174;BME280;42058;52.308;20.924;2022-12-08T11:33:13;100087.20;;;2.64;100.00
56174;BME280;42058;52.308;20.924;2022-12-08T11:35:41;100088.06;;;2.67;100.00
56174;BME280;42058;52.308;20.924;2022-12-08T11:38:21;100090.66;;;2.67;100.00
56174;BME280;42058;52.308;20.924;2022-12-08T11:40:52;100091.96;;;2.69;100.00
56174;BME280;42058;52.308;20.924;2022-12-08T11:49:02;100079.41;;;2.75;100.00
56174;BME280;42058;52.308;20.924;2022-12-08T11:51:33;100080.70;;;2.75;100.00
56174;BME280;42058;52.308;20.924;2022-12-08T11:54:24;100080.70;;;2.75;100.00
56174;BME280;42058;52.308;20.924;2022-12-08T11:56:55;100079.83;;;2.77;100.00
56174;BME280;42058;52.308;20.924;2022-12-08T11:59:44;100080.27;;;2.78;100.00
56174;BME280;42058;52.308;20.924;2022-12-08T12:02:21;100075.08;;;2.80;100.00
56174;BME280;42058;52.308;20.924;2022-12-08T12:11:03;100076.79;;;2.81;100.00
56174;BME280;42058;52.308;20.924;2022-12-08T12:13:57;100076.80;;;2.82;100.00
56174;BME280;42058;52.308;20.924;2022-12-08T12:19:18;100078.09;;;2.82;100.00
56174;BME280;42058;52.308;20.924;2022-12-08T12:21:48;100080.25;;;2.83;100.00
56174;BME280;42058;52.308;20.924;2022-12-08T12:24:31;100074.19;;;2.81;100.00
56174;BME280;42058;52.308;20.924;2022-12-08T12:27:03;100068.14;;;2.80;100.00
56174;BME280;42058;52.308;20.924;2022-12-08T12:29:47;100071.59;;;2.81;100.00
56174;BME280;42058;52.308;20.924;2022-12-08T12:32:16;100061.64;;;2.80;100.00
56174;BME280;42058;52.308;20.924;2022-12-08T12:34:51;100057.74;;;2.80;100.00
56174;BME280;42058;52.308;20.924;2022-12-08T12:37:21;100059.05;;;2.80;100.00
56174;BME280;42058;52.308;20.924;2022-12-08T12:42:45;100058.19;;;2.80;100.00
56174;BME280;42058;52.308;20.924;2022-12-08T12:45:27;100050.83;;;2.79;100.00
56174;BME280;42058;52.308;20.924;2022-12-08T12:56:00;100044.76;;;2.82;100.00
56174;BME280;42058;52.308;20.924;2022-12-08T13:04:01;100040.41;;;2.82;100.00
56174;BME280;42058;52.308;20.924;2022-12-08T13:06:38;100033.92;;;2.82;100.00
56174;BME280;42058;52.308;20.924;2022-12-08T13:09:26;100037.41;;;2.81;100.00
56174;BME280;42058;52.308;20.924;2022-12-08T13:12:02;100033.95;;;2.79;100.00
56174;BME280;42058;52.308;20.924;2022-12-08T13:14:45;100031.75;;;2.79;100.00
56174;BME280;42058;52.308;20.924;2022-12-08T13:17:24;100043.03;;;2.78;100.00
56174;BME280;42058;52.308;20.924;2022-12-08T13:19:52;100041.29;;;2.77;100.00
56174;BME280;42058;52.308;20.924;2022-12-08T13:28:22;100035.24;;;2.78;100.00
56174;BME280;42058;52.308;20.924;2022-12-08T13:30:52;100034.35;;;2.77;100.00
56174;BME280;42058;52.308;20.924;2022-12-08T13:33:31;100034.80;;;2.77;100.00
56174;BME280;42058;52.308;20.924;2022-12-08T13:38:46;100024.40;;;2.75;100.00
56174;BME280;42058;52.308;20.924;2022-12-08T13:41:19;100026.55;;;2.77;100.00
56174;BME280;42058;52.308;20.924;2022-12-08T13:43:58;100029.16;;;2.77;100.00
56174;BME280;42058;52.308;20.924;2022-12-08T13:46:48;100024.40;;;2.75;100.00
56174;BME280;42058;52.308;20.924;2022-12-08T13:49:12;100017.91;;;2.75;100.00
56174;BME280;42058;52.308;20.924;2022-12-08T13:51:42;100017.91;;;2.75;100.00
56174;BME280;42058;52.308;20.924;2022-12-08T13:54:26;100016.19;;;2.74;100.00
56174;BME280;42058;52.308;20.924;2022-12-08T13:56:50;100017.93;;;2.72;100.00
56174;BME280;42058;52.308;20.924;2022-12-08T13:59:29;100014.45;;;2.73;100.00
56174;BME280;42058;52.308;20.924;2022-12-08T14:02:29;100015.33;;;2.71;100.00